sensor_id;sensor_type;location;lat;lon;timestamp;temperature;humidity
8408;DHT22;4241;48.452;9.216;2023-06-10T07:27:20;22.40;99.90
8408;DHT22;4241;48.452;9.216;2023-06-10T07:29:47;22.50;99.90
8408;DHT22;4241;48.452;9.216;2023-06-10T07:32:13;22.70;99.90
8408;DHT22;4241;48.452;9.216;2023-06-10T07:34:40;22.80;99.90
8408;DHT22;4241;48.452;9.216;2023-06-10T07:37:07;22.90;99.90
8408;DHT22;4241;48.452;9.216;2023-06-10T07:39:34;23.10;99.90
8408;DHT22;4241;48.452;9.216;2023-06-10T07:42:02;23.00;99.90
8408;DHT22;4241;48.452;9.216;2023-06-10T07:44:29;23.10;99.90
8408;DHT22;4241;48.452;9.216;2023-06-10T07:46:56;23.30;99.90
8408;DHT22;4241;48.452;9.216;2023-06-10T07:49:23;23.40;99.90
8408;DHT22;4241;48.452;9.216;2023-06-10T07:51:50;23.40;99.90
8408;DHT22;4241;48.452;9.216;2023-06-10T07:54:17;23.40;99.90
8408;DHT22;4241;48.452;9.216;2023-06-10T07:56:44;23.50;99.90
8408;DHT22;4241;48.452;9.216;2023-06-10T07:59:13;23.70;99.90
8408;DHT22;4241;48.452;9.216;2023-06-10T08:01:40;23.70;99.90
8408;DHT22;4241;48.452;9.216;2023-06-10T08:04:09;23.80;99.90
8408;DHT22;4241;48.452;9.216;2023-06-10T08:06:35;24.00;99.90
8408;DHT22;4241;48.452;9.216;2023-06-10T08:09:03;24.20;99.90
8408;DHT22;4241;48.452;9.216;2023-06-10T08:11:30;24.00;99.90
8408;DHT22;4241;48.452;9.216;2023-06-10T08:13:57;24.00;99.90
8408;DHT22;4241;48.452;9.216;2023-06-10T08:16:25;23.90;99.90
8408;DHT22;4241;48.452;9.216;2023-06-10T08:18:51;24.00;99.90
8408;DHT22;4241;48.452;9.216;2023-06-10T08:21:18;24.00;99.90
8408;DHT22;4241;48.452;9.216;2023-06-10T08:23:46;24.00;99.90
8408;DHT22;4241;48.452;9.216;2023-06-10T08:26:12;24.20;99.90
8408;DHT22;4241;48.452;9.216;2023-06-10T08:28:39;24.40;99.90
8408;DHT22;4241;48.452;9.216;2023-06-10T08:31:06;24.40;99.90
8408;DHT22;4241;48.452;9.216;2023-06-10T08:36:01;24.90;99.90
8408;DHT22;4241;48.452;9.216;2023-06-10T08:38:28;25.20;99.90
8408;DHT22;4241;48.452;9.216;2023-06-10T08:40:57;25.50;99.90
8408;DHT22;4241;48.452;9.216;2023-06-10T08:43:32;25.60;99.90
8408;DHT22;4241;48.452;9.216;2023-06-10T08:46:01;25.70;99.90
8408;DHT22;4241;48.452;9.216;2023-06-10T08:48:29;25.60;99.90
8408;DHT22;4241;48.452;9.216;2023-06-10T08:53:26;25.60;99.90
8408;DHT22;4241;48.452;9.216;2023-06-10T08:58:21;25.60;99.90
8408;DHT22;4241;48.452;9.216;2023-06-10T09:00:48;25.50;99.90
8408;DHT22;4241;48.452;9.216;2023-06-10T09:03:15;25.40;99.90
8408;DHT22;4241;48.452;9.216;2023-06-10T09:05:43;25.50;99.90
8408;DHT22;4241;48.452;9.216;2023-06-10T09:08:11;25.90;99.90
8408;DHT22;4241;48.452;9.216;2023-06-10T09:10:39;25.90;99.90
8408;DHT22;4241;48.452;9.216;2023-06-10T09:13:06;25.90;99.90
8408;DHT22;4241;48.452;9.216;2023-06-10T09:15:33;25.80;99.90
8408;DHT22;4241;48.452;9.216;2023-06-10T09:18:00;25.70;99.90
8408;DHT22;4241;48.452;9.216;2023-06-10T09:20:27;25.70;99.90
8408;DHT22;4241;48.452;9.216;2023-06-10T09:22:54;25.80;99.90
8408;DHT22;4241;48.452;9.216;2023-06-10T09:25:34;26.40;99.90
8408;DHT22;4241;48.452;9.216;2023-06-10T09:28:02;26.40;99.90
8408;DHT22;4241;48.452;9.216;2023-06-10T09:30:30;26.60;99.90
8408;DHT22;4241;48.452;9.216;2023-06-10T09:32:59;26.70;99.90
8408;DHT22;4241;48.452;9.216;2023-06-10T09:35:27;26.90;99.90
8408;DHT22;4241;48.452;9.216;2023-06-10T09:37:55;27.00;99.90
8408;DHT22;4241;48.452;9.216;2023-06-10T09:40:24;27.10;99.90
8408;DHT22;4241;48.452;9.216;2023-06-10T09:42:53;27.20;99.90
8408;DHT22;4241;48.452;9.216;2023-06-10T09:45:21;27.30;99.90
8408;DHT22;4241;48.452;9.216;2023-06-10T09:47:51;27.20;99.90
8408;DHT22;4241;48.452;9.216;2023-06-10T09:50:17;27.30;99.90
8408;DHT22;4241;48.452;9.216;2023-06-10T09:52:46;27.80;99.90
8408;DHT22;4241;48.452;9.216;2023-06-10T09:55:12;27.80;99.90
8408;DHT22;4241;48.452;9.216;2023-06-10T09:57:41;27.90;99.90
8408;DHT22;4241;48.452;9.216;2023-06-10T10:00:11;27.90;99.90
8408;DHT22;4241;48.452;9.216;2023-06-10T10:02:45;28.00;99.90
8408;DHT22;4241;48.452;9.216;2023-06-10T10:05:13;28.00;99.90
8408;DHT22;4241;48.452;9.216;2023-06-10T10:07:40;28.10;99.90
8408;DHT22;4241;48.452;9.216;2023-06-10T10:10:08;28.00;99.90
8408;DHT22;4241;48.452;9.216;2023-06-10T10:12:37;27.90;99.90
8408;DHT22;4241;48.452;9.216;2023-06-10T10:15:07;27.70;99.90
8408;DHT22;4241;48.452;9.216;2023-06-10T10:17:35;27.40;99.90
8408;DHT22;4241;48.452;9.216;2023-06-10T10:20:05;27.50;99.90
8408;DHT22;4241;48.452;9.216;2023-06-10T10:22:37;27.70;99.90
8408;DHT22;4241;48.452;9.216;2023-06-10T10:25:10;27.70;99.90
8408;DHT22;4241;48.452;9.216;2023-06-10T10:27:48;28.10;99.90
8408;DHT22;4241;48.452;9.216;2023-06-10T10:30:17;28.30;99.90
8408;DHT22;4241;48.452;9.216;2023-06-10T10:32:56;28.20;99.90
8408;DHT22;4241;48.452;9.216;2023-06-10T10:35:23;28.10;99.90
8408;DHT22;4241;48.452;9.216;2023-06-10T10:37:52;28.20;99.90
8408;DHT22;4241;48.452;9.216;2023-06-10T10:40:19;28.30;99.90
8408;DHT22;4241;48.452;9.216;2023-06-10T10:42:48;28.30;99.90
8408;DHT22;4241;48.452;9.216;2023-06-10T10:45:16;28.10;99.90
8408;DHT22;4241;48.452;9.216;2023-06-10T10:47:45;27.90;99.90
8408;DHT22;4241;48.452;9.216;2023-06-10T10:50:16;27.70;99.90
8408;DHT22;4241;48.452;9.216;2023-06-10T10:52:52;27.90;99.90
8408;DHT22;4241;48.452;9.216;2023-06-10T10:55:20;28.00;99.90
8408;DHT22;4241;48.452;9.216;2023-06-10T10:57:54;27.90;99.90
8408;DHT22;4241;48.452;9.216;2023-06-10T11:00:30;27.70;99.90
8408;DHT22;4241;48.452;9.216;2023-06-10T11:03:05;27.50;99.90
8408;DHT22;4241;48.452;9.216;2023-06-10T11:05:37;27.50;99.90
8408;DHT22;4241;48.452;9.216;2023-06-10T11:08:05;27.30;99.90
8408;DHT22;4241;48.452;9.216;2023-06-10T11:10:36;27.10;99.90
8408;DHT22;4241;48.452;9.216;2023-06-10T11:13:08;27.20;99.90
8408;DHT22;4241;48.452;9.216;2023-06-10T11:15:44;26.80;99.90
8408;DHT22;4241;48.452;9.216;2023-06-10T11:18:14;26.90;99.90
8408;DHT22;4241;48.452;9.216;2023-06-10T11:20:45;26.80;99.90
8408;DHT22;4241;48.452;9.216;2023-06-10T11:23:25;26.70;99.90
8408;DHT22;4241;48.452;9.216;2023-06-10T11:26:09;26.70;99.90
8408;DHT22;4241;48.452;9.216;2023-06-10T11:28:36;26.90;99.90
8408;DHT22;4241;48.452;9.216;2023-06-10T11:31:04;26.90;99.90
8408;DHT22;4241;48.452;9.216;2023-06-10T11:33:31;27.00;99.90
8408;DHT22;4241;48.452;9.216;2023-06-10T11:35:58;26.90;99.90
8408;DHT22;4241;48.452;9.216;2023-06-10T11:38:26;26.70;99.90
8408;DHT22;4241;48.452;9.216;2023-06-10T11:40:55;26.60;99.90
8408;DHT22;4241;48.452;9.216;2023-06-10T11:43:22;26.60;99.90
8408;DHT22;4241;48.452;9.216;2023-06-10T11:45:54;26.80;99.90
8408;DHT22;4241;48.452;9.216;2023-06-10T11:48:22;26.80;99.90
8408;DHT22;4241;48.452;9.216;2023-06-10T11:50:49;27.10;99.90
8408;DHT22;4241;48.452;9.216;2023-06-10T11:53:16;27.70;99.90
8408;DHT22;4241;48.452;9.216;2023-06-10T11:55:44;28.20;99.90
8408;DHT22;4241;48.452;9.216;2023-06-10T11:58:15;28.60;99.90
8408;DHT22;4241;48.452;9.216;2023-06-10T12:03:13;29.10;99.40
8408;DHT22;4241;48.452;9.216;2023-06-10T12:05:56;28.90;99.10
8408;DHT22;4241;48.452;9.216;2023-06-10T12:08:24;28.70;99.90
8408;DHT22;4241;48.452;9.216;2023-06-10T12:10:51;28.30;99.90
8408;DHT22;4241;48.452;9.216;2023-06-10T12:13:18;27.90;99.40
8408;DHT22;4241;48.452;9.216;2023-06-10T12:15:45;27.70;99.90
8408;DHT22;4241;48.452;9.216;2023-06-10T12:18:16;27.30;99.90
8408;DHT22;4241;48.452;9.216;2023-06-10T12:20:45;27.10;99.90
8408;DHT22;4241;48.452;9.216;2023-06-10T12:23:13;26.90;99.90
8408;DHT22;4241;48.452;9.216;2023-06-10T12:25:50;26.90;99.90
8408;DHT22;4241;48.452;9.216;2023-06-10T12:28:21;26.90;99.90
8408;DHT22;4241;48.452;9.216;2023-06-10T12:30:48;26.70;99.90
8408;DHT22;4241;48.452;9.216;2023-06-10T12:33:18;26.60;99.90
8408;DHT22;4241;48.452;9.216;2023-06-10T12:35:50;26.60;99.90
8408;DHT22;4241;48.452;9.216;2023-06-10T12:38:21;26.60;99.90
8408;DHT22;4241;48.452;9.216;2023-06-10T12:40:50;26.60;99.90
8408;DHT22;4241;48.452;9.216;2023-06-10T12:43:19;26.70;99.90
8408;DHT22;4241;48.452;9.216;2023-06-10T12:45:46;27.10;99.90
8408;DHT22;4241;48.452;9.216;2023-06-10T12:48:18;27.40;99.90
8408;DHT22;4241;48.452;9.216;2023-06-10T12:50:52;27.50;99.90
8408;DHT22;4241;48.452;9.216;2023-06-10T12:53:20;27.50;99.90
8408;DHT22;4241;48.452;9.216;2023-06-10T12:55:48;27.50;99.90
8408;DHT22;4241;48.452;9.216;2023-06-10T12:58:15;27.40;99.90
8408;DHT22;4241;48.452;9.216;2023-06-10T13:00:43;27.50;99.90
8408;DHT22;4241;48.452;9.216;2023-06-10T13:03:10;27.50;99.90
8408;DHT22;4241;48.452;9.216;2023-06-10T13:05:37;27.70;99.90
8408;DHT22;4241;48.452;9.216;2023-06-10T13:08:06;28.20;99.90
8408;DHT22;4241;48.452;9.216;2023-06-10T13:10:33;28.50;99.90
8408;DHT22;4241;48.452;9.216;2023-06-10T13:13:00;28.70;99.90
8408;DHT22;4241;48.452;9.216;2023-06-10T13:15:28;29.00;99.90
8408;DHT22;4241;48.452;9.216;2023-06-10T13:17:54;29.10;99.70
8408;DHT22;4241;48.452;9.216;2023-06-10T13:20:21;29.40;97.50
8408;DHT22;4241;48.452;9.216;2023-06-10T13:22:51;29.90;97.20
8408;DHT22;4241;48.452;9.216;2023-06-10T13:27:46;30.20;96.90
8408;DHT22;4241;48.452;9.216;2023-06-10T13:30:13;30.20;95.70
8408;DHT22;4241;48.452;9.216;2023-06-10T13:32:40;30.40;96.90
8408;DHT22;4241;48.452;9.216;2023-06-10T13:35:07;30.00;94.20
8408;DHT22;4241;48.452;9.216;2023-06-10T13:37:35;29.80;96.10
8408;DHT22;4241;48.452;9.216;2023-06-10T13:40:02;29.70;97.60
8408;DHT22;4241;48.452;9.216;2023-06-10T13:42:31;29.30;96.30
8408;DHT22;4241;48.452;9.216;2023-06-10T13:44:58;29.20;98.50
8408;DHT22;4241;48.452;9.216;2023-06-10T13:47:25;28.90;97.60
8408;DHT22;4241;48.452;9.216;2023-06-10T13:49:52;28.80;99.50
8408;DHT22;4241;48.452;9.216;2023-06-10T13:52:18;28.60;98.40
8408;DHT22;4241;48.452;9.216;2023-06-10T13:54:45;28.60;99.90
8408;DHT22;4241;48.452;9.216;2023-06-10T13:57:12;28.40;99.90
8408;DHT22;4241;48.452;9.216;2023-06-10T13:59:40;28.20;99.80
8408;DHT22;4241;48.452;9.216;2023-06-10T14:02:07;28.20;99.90
8408;DHT22;4241;48.452;9.216;2023-06-10T14:04:34;28.20;99.90
8408;DHT22;4241;48.452;9.216;2023-06-10T14:07:01;28.20;99.90
8408;DHT22;4241;48.452;9.216;2023-06-10T14:09:28;28.50;99.90
8408;DHT22;4241;48.452;9.216;2023-06-10T14:11:55;29.80;99.90
8408;DHT22;4241;48.452;9.216;2023-06-10T14:14:22;28.90;99.90
8408;DHT22;4241;48.452;9.216;2023-06-10T14:19:17;29.40;97.60
8408;DHT22;4241;48.452;9.216;2023-06-10T14:21:44;29.50;98.40
8408;DHT22;4241;48.452;9.216;2023-06-10T14:24:10;29.90;99.80
8408;DHT22;4241;48.452;9.216;2023-06-10T14:26:37;29.90;99.10
8408;DHT22;4241;48.452;9.216;2023-06-10T14:29:04;29.80;99.90
8408;DHT22;4241;48.452;9.216;2023-06-10T14:31:32;29.50;99.90
8408;DHT22;4241;48.452;9.216;2023-06-10T14:34:00;29.40;99.90
8408;DHT22;4241;48.452;9.216;2023-06-10T14:36:27;29.10;99.90
8408;DHT22;4241;48.452;9.216;2023-06-10T14:38:54;29.20;99.90
8408;DHT22;4241;48.452;9.216;2023-06-10T14:41:22;29.00;99.90
8408;DHT22;4241;48.452;9.216;2023-06-10T14:43:49;28.80;99.90
8408;DHT22;4241;48.452;9.216;2023-06-10T14:46:16;28.70;99.90
8408;DHT22;4241;48.452;9.216;2023-06-10T14:48:42;28.60;99.90
8408;DHT22;4241;48.452;9.216;2023-06-10T14:51:11;28.60;99.90
8408;DHT22;4241;48.452;9.216;2023-06-10T14:56:05;28.30;99.90
8408;DHT22;4241;48.452;9.216;2023-06-10T14:58:32;28.10;99.90
8408;DHT22;4241;48.452;9.216;2023-06-10T15:00:58;28.00;99.90
8408;DHT22;4241;48.452;9.216;2023-06-10T15:03:25;28.10;99.90
8408;DHT22;4241;48.452;9.216;2023-06-10T15:05:52;28.10;99.90
8408;DHT22;4241;48.452;9.216;2023-06-10T15:08:20;28.40;99.90
8408;DHT22;4241;48.452;9.216;2023-06-10T15:10:47;28.50;99.90
8408;DHT22;4241;48.452;9.216;2023-06-10T15:13:14;28.50;99.90
8408;DHT22;4241;48.452;9.216;2023-06-10T15:15:41;28.50;99.90
8408;DHT22;4241;48.452;9.216;2023-06-10T15:18:08;28.40;99.90
8408;DHT22;4241;48.452;9.216;2023-06-10T15:20:35;28.50;99.90
8408;DHT22;4241;48.452;9.216;2023-06-10T15:23:01;28.60;99.90
8408;DHT22;4241;48.452;9.216;2023-06-10T15:25:30;28.80;99.90
8408;DHT22;4241;48.452;9.216;2023-06-10T15:27:56;29.00;99.90
8408;DHT22;4241;48.452;9.216;2023-06-10T15:30:23;29.20;99.90
8408;DHT22;4241;48.452;9.216;2023-06-10T15:32:50;29.40;99.90
8408;DHT22;4241;48.452;9.216;2023-06-10T15:35:17;29.40;99.90
8408;DHT22;4241;48.452;9.216;2023-06-10T15:37:44;29.90;99.90
8408;DHT22;4241;48.452;9.216;2023-06-10T15:40:11;30.10;99.90
8408;DHT22;4241;48.452;9.216;2023-06-10T15:42:39;30.10;99.90
8408;DHT22;4241;48.452;9.216;2023-06-10T15:45:07;30.30;99.90
8408;DHT22;4241;48.452;9.216;2023-06-10T15:47:33;30.40;99.70
8408;DHT22;4241;48.452;9.216;2023-06-10T15:50:00;30.40;99.00
8408;DHT22;4241;48.452;9.216;2023-06-10T15:52:27;30.60;98.50
8408;DHT22;4241;48.452;9.216;2023-06-10T15:54:54;30.60;99.20
8408;DHT22;4241;48.452;9.216;2023-06-10T15:57:21;30.70;99.40
8408;DHT22;4241;48.452;9.216;2023-06-10T15:59:49;30.70;99.40
8408;DHT22;4241;48.452;9.216;2023-06-10T16:02:16;30.90;99.30
8408;DHT22;4241;48.452;9.216;2023-06-10T16:04:42;30.90;99.20
8408;DHT22;4241;48.452;9.216;2023-06-10T16:07:09;31.20;98.80
8408;DHT22;4241;48.452;9.216;2023-06-10T16:09:36;31.40;98.40
8408;DHT22;4241;48.452;9.216;2023-06-10T16:12:04;31.60;98.30
8408;DHT22;4241;48.452;9.216;2023-06-10T16:14:31;31.70;96.30
8408;DHT22;4241;48.452;9.216;2023-06-10T16:17:02;31.70;94.50
8408;DHT22;4241;48.452;9.216;2023-06-10T16:19:29;31.90;95.30
8408;DHT22;4241;48.452;9.216;2023-06-10T16:24:23;32.20;92.50
8408;DHT22;4241;48.452;9.216;2023-06-10T16:26:50;32.30;93.40
8408;DHT22;4241;48.452;9.216;2023-06-10T16:29:17;32.00;93.10
8408;DHT22;4241;48.452;9.216;2023-06-10T16:31:43;32.10;93.30
8408;DHT22;4241;48.452;9.216;2023-06-10T16:34:12;31.60;93.70
8408;DHT22;4241;48.452;9.216;2023-06-10T16:36:38;32.40;92.70
8408;DHT22;4241;48.452;9.216;2023-06-10T16:39:06;32.30;91.40
8408;DHT22;4241;48.452;9.216;2023-06-10T16:41:32;32.10;91.60
8408;DHT22;4241;48.452;9.216;2023-06-10T16:43:59;32.60;92.00
8408;DHT22;4241;48.452;9.216;2023-06-10T16:46:26;32.40;92.50
8408;DHT22;4241;48.452;9.216;2023-06-10T16:48:54;32.50;92.40
8408;DHT22;4241;48.452;9.216;2023-06-10T16:51:22;32.70;92.10
8408;DHT22;4241;48.452;9.216;2023-06-10T16:53:49;33.00;91.20
8408;DHT22;4241;48.452;9.216;2023-06-10T16:56:16;32.90;91.10
8408;DHT22;4241;48.452;9.216;2023-06-10T16:58:43;32.40;90.40
8408;DHT22;4241;48.452;9.216;2023-06-10T17:01:09;32.00;91.30
8408;DHT22;4241;48.452;9.216;2023-06-10T17:03:36;32.00;92.40
8408;DHT22;4241;48.452;9.216;2023-06-10T17:06:03;32.20;91.60
8408;DHT22;4241;48.452;9.216;2023-06-10T17:08:32;32.60;91.30
8408;DHT22;4241;48.452;9.216;2023-06-10T17:10:58;32.80;91.20
8408;DHT22;4241;48.452;9.216;2023-06-10T17:13:25;33.10;90.20
8408;DHT22;4241;48.452;9.216;2023-06-10T17:15:52;33.40;89.20
8408;DHT22;4241;48.452;9.216;2023-06-10T17:18:19;33.60;88.20
8408;DHT22;4241;48.452;9.216;2023-06-10T17:20:46;33.90;89.00
8408;DHT22;4241;48.452;9.216;2023-06-10T17:23:12;33.90;87.00
8408;DHT22;4241;48.452;9.216;2023-06-10T17:25:40;34.30;86.60
8408;DHT22;4241;48.452;9.216;2023-06-10T17:28:07;34.40;86.10
8408;DHT22;4241;48.452;9.216;2023-06-10T17:30:34;34.40;83.70
8408;DHT22;4241;48.452;9.216;2023-06-10T17:33:01;34.30;83.70
8408;DHT22;4241;48.452;9.216;2023-06-10T17:35:28;34.50;83.20
8408;DHT22;4241;48.452;9.216;2023-06-10T17:37:54;35.10;83.10
8408;DHT22;4241;48.452;9.216;2023-06-10T17:40:21;34.70;82.80
8408;DHT22;4241;48.452;9.216;2023-06-10T17:42:52;34.80;83.10
8408;DHT22;4241;48.452;9.216;2023-06-10T17:45:19;34.60;84.10
8408;DHT22;4241;48.452;9.216;2023-06-10T17:47:46;34.00;85.60
8408;DHT22;4241;48.452;9.216;2023-06-10T17:50:13;34.00;85.70
8408;DHT22;4241;48.452;9.216;2023-06-10T17:52:39;34.00;85.70
8408;DHT22;4241;48.452;9.216;2023-06-10T17:55:06;34.10;86.20
8408;DHT22;4241;48.452;9.216;2023-06-10T17:57:33;33.90;85.60
8408;DHT22;4241;48.452;9.216;2023-06-10T18:00:01;33.70;85.10
8408;DHT22;4241;48.452;9.216;2023-06-10T18:02:28;33.50;86.10
8408;DHT22;4241;48.452;9.216;2023-06-10T18:04:55;32.80;87.90
8408;DHT22;4241;48.452;9.216;2023-06-10T18:07:22;32.00;90.30
8408;DHT22;4241;48.452;9.216;2023-06-10T18:09:49;31.20;90.70
8408;DHT22;4241;48.452;9.216;2023-06-10T18:12:16;30.50;92.50
8408;DHT22;4241;48.452;9.216;2023-06-10T18:14:42;30.30;94.30
8408;DHT22;4241;48.452;9.216;2023-06-10T18:17:10;30.10;94.40
8408;DHT22;4241;48.452;9.216;2023-06-10T18:19:37;29.60;95.70
8408;DHT22;4241;48.452;9.216;2023-06-10T18:22:05;29.20;96.00
8408;DHT22;4241;48.452;9.216;2023-06-10T18:24:32;28.90;97.20
8408;DHT22;4241;48.452;9.216;2023-06-10T18:27:00;28.70;98.70
8408;DHT22;4241;48.452;9.216;2023-06-10T18:29:27;28.50;97.70
8408;DHT22;4241;48.452;9.216;2023-06-10T18:31:54;28.20;99.40
8408;DHT22;4241;48.452;9.216;2023-06-10T18:34:22;28.00;99.90
8408;DHT22;4241;48.452;9.216;2023-06-10T18:36:49;27.70;99.90
8408;DHT22;4241;48.452;9.216;2023-06-10T18:39:15;27.50;99.90
8408;DHT22;4241;48.452;9.216;2023-06-10T18:41:42;27.30;99.90
8408;DHT22;4241;48.452;9.216;2023-06-10T18:44:10;27.30;99.90
8408;DHT22;4241;48.452;9.216;2023-06-10T18:46:37;27.00;99.90
8408;DHT22;4241;48.452;9.216;2023-06-10T18:49:03;26.80;99.90
8408;DHT22;4241;48.452;9.216;2023-06-10T18:51:32;26.40;99.90
8408;DHT22;4241;48.452;9.216;2023-06-10T18:53:58;26.50;99.90
8408;DHT22;4241;48.452;9.216;2023-06-10T18:56:27;26.40;99.90
8408;DHT22;4241;48.452;9.216;2023-06-10T18:58:54;26.20;99.90
8408;DHT22;4241;48.452;9.216;2023-06-10T19:01:21;26.10;99.90
8408;DHT22;4241;48.452;9.216;2023-06-10T19:03:47;25.80;99.90
8408;DHT22;4241;48.452;9.216;2023-06-10T19:06:15;25.50;99.90
8408;DHT22;4241;48.452;9.216;2023-06-10T19:08:43;25.40;99.90
8408;DHT22;4241;48.452;9.216;2023-06-10T19:11:11;25.30;99.90
8408;DHT22;4241;48.452;9.216;2023-06-10T19:13:38;25.20;99.90
8408;DHT22;4241;48.452;9.216;2023-06-10T19:16:05;24.90;99.90
8408;DHT22;4241;48.452;9.216;2023-06-10T19:18:33;24.80;99.90
8408;DHT22;4241;48.452;9.216;2023-06-10T19:21:00;24.70;99.90
8408;DHT22;4241;48.452;9.216;2023-06-10T19:23:27;24.60;99.90
8408;DHT22;4241;48.452;9.216;2023-06-10T19:25:55;24.40;99.90
8408;DHT22;4241;48.452;9.216;2023-06-10T19:28:25;24.40;99.90
8408;DHT22;4241;48.452;9.216;2023-06-10T19:30:52;24.20;99.90
8408;DHT22;4241;48.452;9.216;2023-06-10T19:33:18;24.10;99.90
8408;DHT22;4241;48.452;9.216;2023-06-10T19:35:45;24.10;99.90
8408;DHT22;4241;48.452;9.216;2023-06-10T19:38:12;23.90;99.90
8408;DHT22;4241;48.452;9.216;2023-06-10T19:40:39;24.00;99.90
8408;DHT22;4241;48.452;9.216;2023-06-10T19:43:07;23.90;99.90
8408;DHT22;4241;48.452;9.216;2023-06-10T19:45:34;23.80;99.90
8408;DHT22;4241;48.452;9.216;2023-06-10T19:48:01;23.70;99.90
8408;DHT22;4241;48.452;9.216;2023-06-10T19:52:55;23.60;99.90
8408;DHT22;4241;48.452;9.216;2023-06-10T19:55:22;23.50;99.90
8408;DHT22;4241;48.452;9.216;2023-06-10T19:57:49;23.40;99.90
8408;DHT22;4241;48.452;9.216;2023-06-10T20:00:17;23.40;99.90
8408;DHT22;4241;48.452;9.216;2023-06-10T20:02:44;23.50;99.90
8408;DHT22;4241;48.452;9.216;2023-06-10T20:05:11;23.40;99.90
8408;DHT22;4241;48.452;9.216;2023-06-10T20:07:38;23.30;99.90
8408;DHT22;4241;48.452;9.216;2023-06-10T20:10:05;23.20;99.90
8408;DHT22;4241;48.452;9.216;2023-06-10T20:12:32;23.30;99.90
8408;DHT22;4241;48.452;9.216;2023-06-10T20:14:59;23.20;99.90
8408;DHT22;4241;48.452;9.216;2023-06-10T20:17:28;23.10;99.90
8408;DHT22;4241;48.452;9.216;2023-06-10T20:19:55;23.00;99.90
8408;DHT22;4241;48.452;9.216;2023-06-10T20:22:22;23.00;99.90
8408;DHT22;4241;48.452;9.216;2023-06-10T20:24:50;22.90;99.90
8408;DHT22;4241;48.452;9.216;2023-06-10T20:27:17;22.80;99.90
8408;DHT22;4241;48.452;9.216;2023-06-10T20:29:44;22.80;99.90
8408;DHT22;4241;48.452;9.216;2023-06-10T20:32:11;22.60;99.90
8408;DHT22;4241;48.452;9.216;2023-06-10T20:34:39;22.70;99.90
8408;DHT22;4241;48.452;9.216;2023-06-10T20:37:07;22.60;99.90
8408;DHT22;4241;48.452;9.216;2023-06-10T20:42:01;22.40;99.90
8408;DHT22;4241;48.452;9.216;2023-06-10T20:44:27;22.40;99.90
8408;DHT22;4241;48.452;9.216;2023-06-10T20:46:54;22.30;99.90
8408;DHT22;4241;48.452;9.216;2023-06-10T20:49:21;22.20;99.90
8408;DHT22;4241;48.452;9.216;2023-06-10T20:51:49;22.20;99.90
8408;DHT22;4241;48.452;9.216;2023-06-10T20:56:43;22.10;99.90
8408;DHT22;4241;48.452;9.216;2023-06-10T20:59:10;22.00;99.90
8408;DHT22;4241;48.452;9.216;2023-06-10T21:09:00;21.90;99.90
8408;DHT22;4241;48.452;9.216;2023-06-10T21:13:54;21.90;99.90
8408;DHT22;4241;48.452;9.216;2023-06-10T21:16:20;22.10;99.90
8408;DHT22;4241;48.452;9.216;2023-06-10T21:18:47;21.80;99.90
8408;DHT22;4241;48.452;9.216;2023-06-10T21:21:14;21.80;99.90
8408;DHT22;4241;48.452;9.216;2023-06-10T21:23:41;21.70;99.90
8408;DHT22;4241;48.452;9.216;2023-06-10T21:28:36;21.60;99.90
8408;DHT22;4241;48.452;9.216;2023-06-10T21:31:03;21.60;99.90
